| Date | Time | Temp. (oF) | Dew Point (oF) | Rel. Hum. (%) | Press. (in.) | Wind Dir. | Wind Speed (mph) | Hourly Rainfall (in.) |
|
|---|---|---|---|---|---|---|---|---|---|
| 1 | 09/27 | 00:00 | 70 | 69 | 100 | 29.77 | SW | 3 | 0.00 |
| 2 | 09/26 | 23:00 | 71 | 71 | 100 | 29.76 | SW | 3 | 0.00 |
| 3 | 09/26 | 22:00 | 72 | 72 | 100 | 29.76 | SW | 4 | 0.00 |
| 4 | 09/26 | 21:00 | 72 | 72 | 100 | 29.74 | SSW | 3 | 0.00 |
| 5 | 09/26 | 20:00 | 71 | 71 | 100 | 29.72 | SSE | 13 | 0.03 |
| 6 | 09/26 | 19:00 | 71 | 71 | 100 | 29.72 | SW | 4 | 0.02 |
| 7 | 09/26 | 18:00 | 73 | 71 | 95 | 29.73 | SSE | 13 | 0.03 |
| 8 | 09/26 | 17:00 | 76 | 71 | 87 | 29.72 | SW | 10 | 0.00 |
| 9 | 09/26 | 16:00 | 75 | 72 | 92 | 29.74 | S | 9 | 0.00 |
| 10 | 09/26 | 15:00 | 74 | 71 | 93 | 29.78 | S | 3 | 0.02 |
| 11 | 09/26 | 14:00 | 77 | 69 | 78 | 29.81 | S | 16 | 0.00 |
| 12 | 09/26 | 13:00 | 78 | 70 | 77 | 29.84 | SW | 5 | 0.00 |
| 13 | 09/26 | 12:00 | 77 | 69 | 79 | 29.87 | S | 8 | 0.00 |
| 14 | 09/26 | 11:00 | 74 | 68 | 84 | 29.91 | S | 18 | 0.00 |
| 15 | 09/26 | 10:00 | 72 | 68 | 89 | 29.93 | S | 4 | 0.00 |
| 16 | 09/26 | 09:00 | 71 | 68 | 93 | 29.95 | SSE | 5 | 0.00 |
| 17 | 09/26 | 08:00 | 70 | 68 | 95 | 29.99 | S | 8 | 0.00 |
| 18 | 09/26 | 07:00 | 69 | 67 | 96 | 30.00 | S | 5 | 0.00 |
| 19 | 09/26 | 06:00 | 68 | 66 | 96 | 30.01 | SSW | 3 | 0.00 |
| 20 | 09/26 | 05:00 | 68 | 66 | 96 | 30.02 | SSE | 5 | 0.00 |
| 21 | 09/26 | 04:00 | 67 | 66 | 98 | 30.03 | SSE | 3 | 0.00 |
| 22 | 09/26 | 03:00 | 67 | 65 | 96 | 30.06 | SSE | 2 | 0.00 |
| 23 | 09/26 | 02:00 | 68 | 66 | 95 | 30.09 | S | 2 | 0.00 |
| 24 | 09/26 | 01:00 | 67 | 65 | 96 | 30.09 | S | 3 | 0.00 |